Nottingham, Indiana
Current Conditions -  °F | °C
As of 3:53 AM on Sunday 21 Dec 2014 (Local Time) from KMIE Reporting Station
Haze Haze  
Wind Chill: 22°   Ceiling: 6000
Heat Index: 22°   Visibility: 4mi
Dew Point: 19°   Wind: 0mph
Humidity: 89%   Direction: NA
Pressure: 30.29"   Gusts: NA
Location:  40.5457°N, 85.2546°W
Report Text: KMIE 210853Z AUTO 00000KT 4SM BR BKN060 M06/M07 A3029 RMK AO2 SLP266 I1000 I3000 T10561072 53002
Loading
Personal Weather Stations






























Interactive Weather Map New forecast layout! Learn more

10-Day Weather Forecast

Advertisements
Track Severe Weather on mobile